Alpena, South Dakota
Current Conditions -  °F | °C
As of 2:55 AM on Saturday 29 Nov 2014 (Local Time) from KHON Reporting Station
Haze Haze  
Wind Chill: 16°   Ceiling: Unl
Heat Index: 25°   Visibility: 6mi
Dew Point: 23°   Wind: 9mph
Humidity: 92%   Direction: 170°S
Pressure: 29.44"   Gusts: NA
Location:  44.18°N, 98.37°W
Report Text: KHON 290855Z AUTO 17008KT 6SM BR CLR M04/M05 A2944 RMK AO2 SLP982 T10391050 56019
Loading
Personal Weather Stations






























Interactive Weather Map New forecast layout! Learn more

10-Day Weather Forecast

Advertisements
Track Severe Weather on mobile